createdAt,value
2023-04-27T00:00:11.580Z,41.83
2023-04-27T00:02:40.523Z,44.30
2023-04-27T01:44:32.778Z,41.97
2023-04-27T01:56:58.681Z,42.08
2023-04-27T01:59:28.644Z,40.13
2023-04-27T02:01:57.567Z,41.70
2023-04-27T02:04:26.260Z,40.90
2023-04-27T02:06:54.976Z,41.88
2023-04-27T02:09:23.650Z,42.50
2023-04-27T02:11:52.144Z,45.67
2023-04-27T02:14:20.583Z,41.15
2023-04-27T02:16:52.032Z,40.50
2023-04-27T02:19:20.637Z,40.80
2023-04-27T02:21:49.079Z,42.22
2023-04-27T02:24:17.577Z,41.13
2023-04-27T02:26:46.466Z,42.28
2023-04-27T02:29:15.371Z,40.75
2023-04-27T02:31:44.438Z,41.58
2023-04-27T02:34:14.487Z,42.42
2023-04-27T02:36:43.043Z,43.40
2023-04-27T02:39:11.724Z,43.25
2023-04-27T02:41:40.463Z,41.60
2023-04-27T02:44:08.934Z,43.72
2023-04-27T02:46:37.327Z,42.08
2023-04-27T02:49:06.116Z,40.42
2023-04-27T02:51:36.216Z,42.40
2023-04-27T02:54:04.910Z,41.55
2023-04-27T02:56:33.387Z,42.72
2023-04-27T02:59:01.866Z,44.60
2023-04-27T03:01:33.206Z,43.47
2023-04-27T03:04:01.856Z,41.22
2023-04-27T03:06:30.490Z,44.58
2023-04-27T03:09:00.340Z,41.38
2023-04-27T03:11:29.070Z,44.08
2023-04-27T03:13:57.747Z,42.72
2023-04-27T03:16:26.288Z,40.55
2023-04-27T03:18:54.836Z,44.58
2023-04-27T03:21:23.277Z,42.55
2023-04-27T03:23:51.902Z,42.25
2023-04-27T03:26:21.821Z,41.10
2023-04-27T03:28:50.299Z,39.92
2023-04-27T03:31:18.702Z,40.47
2023-04-27T03:33:47.187Z,40.55
2023-04-27T03:36:15.761Z,41.92
2023-04-27T03:38:44.779Z,41.15
2023-04-27T03:41:16.093Z,41.10
2023-04-27T03:43:46.020Z,40.75
2023-04-27T03:46:14.488Z,40.50
2023-04-27T03:48:43.931Z,41.15
2023-04-27T03:51:12.491Z,42.92
2023-04-27T03:53:40.938Z,40.28
2023-04-27T03:56:09.431Z,44.00
2023-04-27T03:58:37.879Z,40.33
2023-04-27T04:01:10.099Z,41.60
2023-04-27T04:03:38.810Z,41.03
2023-04-27T04:06:07.892Z,43.50
2023-04-27T04:08:36.364Z,42.20
2023-04-27T04:11:05.101Z,40.33
2023-04-27T04:13:36.289Z,41.65
2023-04-27T04:16:08.852Z,41.03
2023-04-27T04:18:40.412Z,41.78
2023-04-27T04:21:10.743Z,42.47
2023-04-27T04:23:41.210Z,41.08
2023-04-27T04:26:10.073Z,45.80
2023-04-27T04:28:38.608Z,42.72
2023-04-27T04:31:09.916Z,42.85
2023-04-27T04:33:38.456Z,43.58
2023-04-27T04:36:07.874Z,49.00
2023-04-27T04:38:36.602Z,44.00
2023-04-27T04:41:05.114Z,43.65
2023-04-27T04:43:33.900Z,41.88
2023-04-27T04:46:02.638Z,44.67
2023-04-27T04:48:32.491Z,41.90
2023-04-27T04:51:02.564Z,42.88
2023-04-27T04:53:30.939Z,44.13
2023-04-27T04:55:59.441Z,44.80
2023-04-27T04:58:27.903Z,43.40
2023-04-27T05:00:56.500Z,45.65
2023-04-27T05:03:25.068Z,44.40
2023-04-27T05:05:55.199Z,46.88
2023-04-27T05:08:23.633Z,46.25
2023-04-27T05:10:52.233Z,43.38
2023-04-27T05:13:21.109Z,44.97
2023-04-27T05:15:49.563Z,43.65
2023-04-27T05:18:18.047Z,43.47
2023-04-27T05:20:46.925Z,46.40
2023-04-27T05:23:16.755Z,43.85
2023-04-27T05:28:13.436Z,47.45
2023-04-27T05:30:42.031Z,45.80
2023-04-27T06:32:54.802Z,49.38
2023-04-27T06:37:58.753Z,49.47
2023-04-27T07:00:19.740Z,55.80
2023-04-27T07:05:18.114Z,51.10
2023-04-27T08:27:40.727Z,51.60
2023-04-27T08:50:13.525Z,52.08
2023-04-27T09:02:49.505Z,50.45
2023-04-27T10:24:38.758Z,53.30
2023-04-27T10:29:39.834Z,53.28
2023-04-27T12:55:47.022Z,49.63
2023-04-27T13:38:17.952Z,49.30
2023-04-27T13:43:14.711Z,48.80
2023-04-27T13:50:41.920Z,49.72
2023-04-27T13:53:10.478Z,48.60
2023-04-27T13:55:38.947Z,51.78
2023-04-27T13:58:11.818Z,47.53
2023-04-27T14:00:40.352Z,49.30
2023-04-27T14:03:09.122Z,48.53
2023-04-27T14:05:39.109Z,48.50
2023-04-27T14:08:07.630Z,50.20
2023-04-27T14:10:38.224Z,50.15
2023-04-27T14:13:06.799Z,48.22
2023-04-27T14:15:37.430Z,48.33
2023-04-27T14:18:07.772Z,51.20
2023-04-27T14:20:38.622Z,47.70
2023-04-27T14:45:33.836Z,49.00
2023-04-27T16:05:07.396Z,46.83
2023-04-27T16:07:37.379Z,48.70
2023-04-27T16:10:07.854Z,48.92
2023-04-27T16:12:36.798Z,47.00
2023-04-27T16:15:07.973Z,48.92
2023-04-27T16:17:39.442Z,47.25
2023-04-27T16:20:12.132Z,47.60
2023-04-27T16:22:40.826Z,46.17
2023-04-27T16:25:11.364Z,47.58
2023-04-27T16:27:40.636Z,47.13
2023-04-27T16:30:10.469Z,48.00
2023-04-27T16:32:40.522Z,47.78
2023-04-27T16:35:09.865Z,46.75
2023-04-27T16:37:38.514Z,50.50
2023-04-27T16:40:09.143Z,50.22
2023-04-27T16:42:37.595Z,57.55
2023-04-27T16:45:09.974Z,48.47
2023-04-27T16:47:41.911Z,57.70
2023-04-27T16:50:11.865Z,48.42
2023-04-27T16:52:40.631Z,49.22
2023-04-27T16:55:09.921Z,47.55
2023-04-27T16:57:38.377Z,48.85
2023-04-27T17:00:09.874Z,46.42
2023-04-27T17:02:42.035Z,49.67
2023-04-27T17:05:12.457Z,49.17
2023-04-27T17:07:40.904Z,62.75
2023-04-27T17:10:10.643Z,55.83
2023-04-27T17:12:39.520Z,51.03
2023-04-27T17:15:09.621Z,47.78
2023-04-27T17:17:39.826Z,47.78
2023-04-27T17:20:10.444Z,46.50
2023-04-27T17:22:39.030Z,47.78
2023-04-27T17:25:09.297Z,47.25
2023-04-27T17:27:37.806Z,45.88
2023-04-27T17:30:09.594Z,47.38
2023-04-27T17:35:10.246Z,48.00
2023-04-27T17:37:39.107Z,48.67
2023-04-27T17:40:11.850Z,47.50
2023-04-27T17:42:40.659Z,48.47
2023-04-27T17:45:11.607Z,48.88
2023-04-27T17:47:41.535Z,49.15
2023-04-27T17:50:11.509Z,46.63
2023-04-27T21:34:52.796Z,48.45
2023-04-27T21:37:22.638Z,45.53
2023-04-27T21:39:51.209Z,46.22
2023-04-27T21:42:19.658Z,48.28
2023-04-27T21:44:48.060Z,49.22
2023-04-27T21:47:19.169Z,46.28
2023-04-27T21:49:47.553Z,46.38
2023-04-27T21:52:16.192Z,47.83
2023-04-27T21:54:46.165Z,48.13
2023-04-27T21:57:14.740Z,47.22
2023-04-27T21:59:43.200Z,46.55
2023-04-27T22:02:11.767Z,46.28
2023-04-27T22:04:40.396Z,46.83
2023-04-27T22:07:09.037Z,50.97
2023-04-27T22:09:39.133Z,46.88
2023-04-27T22:12:09.274Z,46.10
2023-04-27T22:14:37.673Z,49.50
2023-04-27T22:17:06.427Z,50.05
2023-04-27T22:19:34.988Z,45.22
2023-04-27T22:22:03.966Z,48.17
2023-04-27T22:24:32.500Z,47.55
2023-04-27T22:27:00.972Z,48.17
2023-04-27T22:29:30.997Z,46.67
2023-04-27T22:32:02.438Z,50.15
2023-04-27T22:34:31.590Z,49.10
2023-04-27T22:37:00.300Z,46.22
2023-04-27T22:39:28.792Z,46.05
2023-04-27T22:41:57.263Z,45.17
2023-04-27T22:46:56.389Z,46.45
2023-04-27T22:49:25.299Z,46.03
2023-04-27T22:51:54.121Z,46.35
2023-04-27T22:54:22.550Z,45.67
2023-04-27T22:56:51.212Z,45.72
2023-04-27T22:59:22.917Z,44.55
2023-04-27T23:01:51.726Z,48.20
2023-04-27T23:04:22.123Z,46.45
2023-04-27T23:06:53.669Z,46.10
2023-04-27T23:09:22.711Z,47.63
2023-04-27T23:11:52.311Z,50.63
2023-04-27T23:14:20.923Z,45.85
2023-04-27T23:16:50.064Z,45.60
2023-04-27T23:24:16.665Z,47.00
2023-04-27T23:26:45.283Z,45.45
2023-04-27T23:29:13.744Z,43.40
2023-04-27T23:31:42.380Z,45.00
2023-04-27T23:34:10.934Z,47.65
2023-04-27T23:36:39.515Z,44.67
2023-04-27T23:39:09.424Z,48.97
2023-04-27T23:41:37.940Z,44.33
2023-04-27T23:44:06.597Z,44.65
